Main page
METAR-TAF:

METAR-TAF

Airports :

Mashhad, Iran

Mashhad International Airport

latitude: 36-16N, longitude: 059-38E, elevation: 989 m

Current weather observation

The report was made 29 minutes ago, at 16:00 UTC
Wind 6 kt from the South
Temperature 6°C
Humidity 42%
Pressure 1023 hPa
Visibility 10 km or more
no clouds below 1500 m and no cumulonimbus

METAR: OIMM 181600Z 18006KT CAVOK 06/M06 Q1023 A3021

Time: 19:59 (16:29 UTC)

Forecast

The report was made 5 hours and 29 minutes ago, at 11:00 UTC
Forecast valid from 18 at 12 UTC to 19 at 18 UTC
Wind 8 kt from the West/Northwest
Visibility: 7000 m
Temporary
from 19 at 04 UTC to 19 at 10 UTC
Visibility: 4000 m
haze

TAF: OIMM 181100Z 1812/1918 30004MPS 7000 NSC TEMPO 1904/1910 4000 HZ

Weather observations and forecasts of more than 4000 airports (METAR and TAF reports).

The available stations are represented by yellow and red dots on the map.

Hover mouse over dot to see the name of the station.

Then click to see weather observations and forecasts.

To change the map : click on the green buttons with a black cross to zoom in, on the green button with a dash to zoom out, or on the green arrows for adjacent maps.


METAR-TAF: